Kimper, KY (41539)

12:57 PM EST em 12 de Fevereiro de 2016 (GMT -0500)
Zebulon | | Change Station
CLOSE
Current Station
Estação Meteorológica Particular
Location: Pikeville, KY
Altitude: 820 ft
Estações Meteorológicas Próximas
Alerta a Decorrer: Winter Weather Advisory

Elev 820 ft 37.55 °N, 82.45 °W | Updated 54 seconds ago

Neve
Neve
29.1 °F
Aparente 25 °F
N
3.7
Vento Variável Vento de NE

Hoje
Máxima -- | Mínima -- °F
--% Possibilidade de Precip.
Ontem
Máxima -- | Mínima -- °F
Precip. -- pol
Pressão 30.11 pol
Visibilidade 10.0 milhas
Nuvens Nuvens Dispersas 2900 ft
Muito Nublado 3900 ft
Céu Encoberto 4800 ft
Sensação Térmica 25 °F
Ponto de Orvalho 20 °F
Humidade 69%
Chuva 0.00 pol
Altura de Neve Não disponível
7:22 AM 6:04 PM
Quarto crescente, 22% visible
METAR KSJS 121735Z AUTO 27005KT 10SM SCT029 BKN039 OVC048 M02/M11 A3011 RMK AO2 T10191108
Pressão 30.11 pol
Visibilidade 10.0 milhas
Nuvens Nuvens Dispersas 2900 ft
Muito Nublado 3900 ft
Céu Encoberto 4800 ft
Sensação Térmica 25 °F
Ponto de Orvalho 20 °F
Humidade 69%
Chuva 0.00 pol
Altura de Neve Não disponível
7:22 AM 6:04 PM
Quarto crescente, 22% visible
METAR KSJS 121735Z AUTO 27005KT 10SM SCT029 BKN039 OVC048 M02/M11 A3011 RMK AO2 T10191108

10-Day Weather Forecast

Almanac

Astronomia

Feb. 12, 2016 Nascer Pôr
Hora atual
Crepúsculo civil
Crepúsculo náutico
Crepúsculo astronómico
Lua
Comprimento da luz visível
Duração do Dia
Tomorrow will be .
, % of the Moon is Illuminated

Extremos de Hoje

situação na parte mais alta situação na parte mais baixa

Community

WunderPhotos

Upload Photos

1,892,354 fotografias inseridas!

WunderBlog® & News

Nearby

Qualidade do Ar

  Qualidade do Ar Índice da Q.A. Poluente
Not available.

Altura da Neve

Estação altura Altitude

Actividade Sísmisca

Cidade Distância Mag. Hora & Data
Mínima magnitude apresentada é 2.5.

Temperaturas das Águas Costeiras

Local Temperatura

Stations

Estações Meteorológicas Próximas

Localização da Estação Temp. Sensação Térmica Ponto de Orvalho Humidade Vento Precip. Elev Actualizado Tipo
                   

Watches & Warnings

Winter Weather Advisory
Issued: 12:00 EST Feb. 12, 2016 – National Weather Service

... Winter Weather Advisory now in effect until 2 PM EST this
afternoon...

* numerous snow showers early this afternoon will taper to
scattered snow showers by mid afternoon.

* Total snow accumulations of around an inch are expected for
most of the advisory area... with locally up to an inch and a
half near the Tennessee and Virginia borders.

* Reduced visibilities are anticipated in heavier snow showers.

* Plan on slippery Road conditions through the first part of the
afternoon.


Greif